Time;durP1;ratioP1;P1;durP2;ratioP2;P2;SDS_P1;SDS_P2;PMS_P1;PMS_P2;Temp;Humidity;BMP_temperature;BMP_pressure;BME280_temperature;BME280_humidity;BME280_pressure;Samples;Min_cycle;Max_cycle;Signal;HPM_P1;HPM_P2
2022/04/25 00:01:22;;;;;;;9.40;5.30;;;9.10;99.90;;;;;;4985502;28;20049;-88
2022/04/25 00:03:48;;;;;;;10.45;5.68;;;9.10;99.90;;;;;;4978497;28;20093;-88
2022/04/25 00:06:15;;;;;;;9.20;4.93;;;9.10;99.90;;;;;;4959841;28;20037;-88
2022/04/25 00:08:42;;;;;;;9.48;5.00;;;9.10;99.90;;;;;;4962948;28;20027;-89
2022/04/25 00:11:07;;;;;;;9.10;5.35;;;9.10;99.90;;;;;;4964695;28;20026;-88
2022/04/25 00:13:33;;;;;;;9.32;4.70;;;9.10;99.90;;;;;;4982774;28;20041;-87
2022/04/25 00:16:00;;;;;;;10.75;5.03;;;9.10;99.90;;;;;;4956761;28;20050;-88
2022/04/25 00:18:25;;;;;;;9.98;4.68;;;9.10;99.90;;;;;;4975561;28;20031;-87
2022/04/25 00:20:51;;;;;;;9.88;5.10;;;9.10;99.90;;;;;;4976855;28;20057;-88
2022/04/25 00:23:17;;;;;;;9.20;4.70;;;9.10;99.90;;;;;;4953573;28;20689;-88
2022/04/25 00:25:43;;;;;;;11.10;5.95;;;9.20;99.90;;;;;;4974412;28;20114;-88
2022/04/25 00:28:11;;;;;;;10.73;4.72;;;9.00;99.90;;;;;;4971187;28;20473;-88
2022/04/25 00:30:37;;;;;;;12.55;5.95;;;9.10;99.90;;;;;;4965028;28;20053;-87
2022/04/25 00:33:03;;;;;;;10.65;5.22;;;9.20;99.90;;;;;;4949640;28;20066;-87
2022/04/25 00:35:29;;;;;;;8.93;5.00;;;9.10;99.90;;;;;;4975372;28;20030;-87
2022/04/25 00:37:55;;;;;;;13.52;5.72;;;9.10;99.90;;;;;;4961842;28;20087;-87
2022/04/25 00:40:23;;;;;;;11.98;5.40;;;9.10;99.90;;;;;;4959808;28;20126;-88
2022/04/25 00:42:49;;;;;;;9.50;5.57;;;9.10;99.90;;;;;;4956346;23;20066;-85
2022/04/25 00:45:16;;;;;;;10.07;5.25;;;9.10;99.90;;;;;;4943089;28;20031;-85
2022/04/25 00:47:43;;;;;;;10.75;5.85;;;9.10;99.90;;;;;;4959335;28;20095;-85
2022/04/25 00:50:09;;;;;;;11.82;6.75;;;9.10;99.90;;;;;;4961189;28;20027;-85
2022/04/25 00:52:36;;;;;;;11.88;5.72;;;9.10;99.90;;;;;;4949818;28;20086;-86
2022/04/25 00:55:06;;;;;;;11.27;5.82;;;9.10;99.90;;;;;;4948908;28;20117;-87
2022/04/25 00:57:37;;;;;;;13.02;6.40;;;9.00;99.90;;;;;;4939423;28;20091;-85
2022/04/25 01:00:06;;;;;;;10.07;5.82;;;9.10;99.90;;;;;;4959573;28;20035;-85
2022/04/25 01:02:32;;;;;;;12.10;6.18;;;9.00;99.90;;;;;;4945654;28;20038;-85
2022/04/25 01:04:58;;;;;;;13.23;6.97;;;9.00;99.90;;;;;;4938692;29;20019;-85
2022/04/25 01:07:23;;;;;;;12.00;6.63;;;9.00;99.90;;;;;;4963113;28;20385;-86
2022/04/25 01:09:49;;;;;;;11.80;6.18;;;9.10;99.90;;;;;;4963640;28;20034;-85
2022/04/25 01:12:15;;;;;;;10.85;5.85;;;9.00;99.90;;;;;;4967698;28;20087;-86
2022/04/25 01:14:41;;;;;;;11.77;6.50;;;9.00;99.90;;;;;;4950250;28;20083;-85
2022/04/25 01:17:07;;;;;;;11.90;6.53;;;9.00;99.90;;;;;;4965596;28;20144;-85
2022/04/25 01:19:33;;;;;;;12.68;6.45;;;9.00;99.90;;;;;;4931660;28;20114;-84
2022/04/25 01:22:03;;;;;;;12.90;6.55;;;9.00;99.90;;;;;;4941699;28;20482;-84
2022/04/25 01:27:17;;;;;;;15.68;7.57;;;9.00;99.90;;;;;;4957878;28;20042;-85
2022/04/25 01:29:53;;;;;;;11.75;6.80;;;8.90;99.90;;;;;;4946903;28;20129;-87
2022/04/25 01:32:21;;;;;;;12.77;6.32;;;8.90;99.90;;;;;;4949611;28;20030;-86
2022/04/25 01:34:47;;;;;;;11.85;6.70;;;8.90;99.90;;;;;;4945313;28;20485;-85
2022/04/25 01:37:17;;;;;;;13.82;7.15;;;8.90;99.90;;;;;;4966044;28;20023;-85
2022/04/25 01:39:44;;;;;;;14.02;7.25;;;8.80;99.90;;;;;;4942944;28;20031;-84
2022/04/25 01:42:10;;;;;;;11.38;6.28;;;8.80;99.90;;;;;;4964242;28;20479;-86
2022/04/25 01:44:36;;;;;;;11.68;6.53;;;8.80;99.90;;;;;;4941412;28;20026;-84
2022/04/25 01:47:03;;;;;;;12.85;6.57;;;8.70;99.90;;;;;;4939839;29;20024;-87
2022/04/25 01:49:29;;;;;;;12.80;7.00;;;8.80;99.90;;;;;;4950699;28;20450;-85
2022/04/25 01:51:55;;;;;;;14.48;7.45;;;8.70;99.90;;;;;;4943418;28;20027;-86
2022/04/25 01:54:27;;;;;;;14.02;7.88;;;8.70;99.90;;;;;;4945536;28;20458;-86
2022/04/25 01:56:54;;;;;;;14.02;7.32;;;8.70;99.90;;;;;;4944777;28;20445;-85
2022/04/25 01:59:20;;;;;;;15.23;7.55;;;8.80;99.90;;;;;;4964291;28;20134;-86
2022/04/25 02:01:45;;;;;;;15.52;8.05;;;8.70;99.90;;;;;;4959078;28;20113;-85
2022/04/25 02:04:11;;;;;;;12.25;6.95;;;8.70;99.90;;;;;;4946023;28;20028;-85
2022/04/25 02:06:37;;;;;;;15.93;8.05;;;8.70;99.90;;;;;;4944948;28;20031;-86
2022/04/25 02:09:02;;;;;;;15.57;8.07;;;8.70;99.90;;;;;;4946817;28;20553;-84
2022/04/25 02:11:30;;;;;;;13.90;7.45;;;8.70;99.90;;;;;;4966985;28;20062;-86
2022/04/25 02:13:57;;;;;;;14.65;7.88;;;8.60;99.90;;;;;;4942261;28;20041;-85
2022/04/25 02:16:23;;;;;;;15.13;7.57;;;8.60;99.90;;;;;;4956663;28;20043;-85
2022/04/25 02:18:50;;;;;;;13.25;7.57;;;8.60;99.90;;;;;;4948430;28;20027;-85
2022/04/25 02:21:15;;;;;;;14.50;8.20;;;8.70;99.90;;;;;;4944066;28;20031;-85
2022/04/25 02:23:41;;;;;;;14.32;7.85;;;8.60;99.90;;;;;;4964062;28;20049;-85
2022/04/25 02:26:10;;;;;;;14.05;7.80;;;8.60;99.90;;;;;;4963681;28;20038;-86
2022/04/25 02:28:37;;;;;;;15.27;8.82;;;8.60;99.90;;;;;;4929370;28;20045;-85
2022/04/25 02:31:04;;;;;;;14.40;7.15;;;8.70;99.90;;;;;;4954400;28;20031;-85
2022/04/25 02:33:35;;;;;;;14.80;7.78;;;8.60;99.90;;;;;;4943538;28;20413;-87
2022/04/25 02:36:04;;;;;;;16.23;8.23;;;8.50;99.90;;;;;;4945426;28;20043;-85
2022/04/25 02:38:31;;;;;;;15.48;8.15;;;8.50;99.90;;;;;;4947077;28;20516;-86
2022/04/25 02:41:06;;;;;;;15.55;8.32;;;8.50;99.90;;;;;;4941743;28;20032;-86
2022/04/25 02:43:40;;;;;;;16.80;7.80;;;8.50;99.90;;;;;;4946282;28;20044;-84
2022/04/25 02:46:07;;;;;;;13.32;7.28;;;8.50;99.90;;;;;;4958362;28;20039;-86
2022/04/25 02:48:34;;;;;;;14.25;8.27;;;8.50;99.90;;;;;;4960330;28;20520;-85
2022/04/25 02:51:01;;;;;;;13.55;7.50;;;8.50;99.90;;;;;;4966757;28;20517;-86
2022/04/25 02:53:27;;;;;;;14.15;7.22;;;8.60;99.90;;;;;;4961817;28;20516;-85
2022/04/25 02:55:53;;;;;;;14.35;7.28;;;8.50;99.90;;;;;;4942681;28;20039;-86
2022/04/25 02:58:23;;;;;;;14.25;7.68;;;8.40;99.90;;;;;;4963529;28;20094;-85
2022/04/25 03:00:49;;;;;;;13.95;7.68;;;8.50;99.90;;;;;;4948062;28;20041;-85
2022/04/25 03:03:17;;;;;;;13.52;7.55;;;8.40;99.90;;;;;;4959057;28;20159;-86
2022/04/25 03:05:48;;;;;;;14.25;7.82;;;8.40;99.90;;;;;;4940286;28;20035;-85
2022/04/25 03:08:16;;;;;;;13.65;7.72;;;8.40;99.90;;;;;;4938399;28;20037;-87
2022/04/25 03:10:43;;;;;;;13.90;7.47;;;8.40;99.90;;;;;;4950199;28;20565;-86
2022/04/25 03:13:18;;;;;;;15.10;7.53;;;8.30;99.90;;;;;;4948695;28;20398;-84
2022/04/25 03:15:46;;;;;;;14.13;7.90;;;8.40;99.90;;;;;;4938003;28;20118;-86
2022/04/25 03:18:13;;;;;;;12.25;6.85;;;8.30;99.90;;;;;;4948563;28;20082;-85
2022/04/25 03:20:41;;;;;;;12.65;7.07;;;8.30;99.90;;;;;;4948859;28;20023;-84
2022/04/25 03:23:07;;;;;;;13.88;7.03;;;8.20;99.90;;;;;;4965387;28;20054;-86
2022/04/25 03:25:33;;;;;;;13.07;7.55;;;8.20;99.90;;;;;;4964573;28;20469;-85
2022/04/25 03:27:59;;;;;;;14.68;7.65;;;8.20;99.90;;;;;;4959794;28;20034;-86
2022/04/25 03:30:25;;;;;;;15.93;8.13;;;8.10;99.90;;;;;;4967502;28;20459;-84
2022/04/25 03:32:52;;;;;;;15.45;8.07;;;8.20;99.90;;;;;;4965882;28;20039;-85
2022/04/25 03:35:19;;;;;;;15.63;7.80;;;8.10;99.90;;;;;;4940168;28;20122;-86
2022/04/25 03:37:46;;;;;;;13.90;7.65;;;8.00;99.90;;;;;;4977480;28;20035;-87
2022/04/25 03:40:13;;;;;;;12.98;7.55;;;8.00;99.90;;;;;;4951386;28;20022;-85
2022/04/25 03:42:39;;;;;;;14.55;7.82;;;7.90;99.90;;;;;;4940273;28;20490;-86
2022/04/25 03:45:07;;;;;;;16.15;8.30;;;8.00;99.90;;;;;;4944633;28;20059;-86
2022/04/25 03:47:33;;;;;;;11.77;6.72;;;7.90;99.90;;;;;;4949370;28;20028;-86
2022/04/25 03:49:58;;;;;;;16.33;8.27;;;7.90;99.90;;;;;;4968355;28;20087;-85
2022/04/25 03:52:24;;;;;;;15.02;7.45;;;7.80;99.90;;;;;;4957690;28;20103;-86
2022/04/25 03:57:34;;;;;;;15.05;7.50;;;7.90;99.90;;;;;;4967618;28;20100;-85
2022/04/25 04:00:00;;;;;;;13.35;7.15;;;7.80;99.90;;;;;;4942020;28;20489;-85
2022/04/25 04:02:26;;;;;;;14.00;7.47;;;7.80;99.90;;;;;;4950261;28;20041;-86
2022/04/25 04:04:51;;;;;;;13.60;7.85;;;7.80;99.90;;;;;;4946683;28;20033;-85
2022/04/25 04:07:17;;;;;;;13.55;7.50;;;7.80;99.90;;;;;;4946497;28;20090;-85
2022/04/25 04:09:45;;;;;;;14.57;8.10;;;7.80;99.90;;;;;;4962162;28;20067;-86
2022/04/25 04:12:16;;;;;;;16.88;8.07;;;7.80;99.90;;;;;;4943645;28;20034;-86
2022/04/25 04:14:42;;;;;;;17.38;8.38;;;7.80;99.90;;;;;;4962572;28;20031;-84
2022/04/25 04:17:08;;;;;;;16.58;8.65;;;7.70;99.90;;;;;;4937848;29;20033;-87
2022/04/25 04:19:35;;;;;;;18.40;8.70;;;7.70;99.90;;;;;;4967933;28;20038;-84
2022/04/25 04:22:02;;;;;;;16.10;7.97;;;7.80;99.90;;;;;;4941449;28;20027;-85
2022/04/25 04:24:28;;;;;;;15.05;8.43;;;7.80;99.90;;;;;;4960119;28;20482;-86
2022/04/25 04:26:55;;;;;;;15.00;8.73;;;7.80;99.90;;;;;;4947688;28;20031;-86
2022/04/25 04:29:21;;;;;;;15.07;7.78;;;7.90;99.90;;;;;;4960227;28;20156;-85
2022/04/25 04:31:47;;;;;;;15.95;8.25;;;7.80;99.90;;;;;;4958549;28;20062;-86
2022/04/25 04:34:13;;;;;;;14.20;7.72;;;7.90;99.90;;;;;;4948494;28;20038;-85
2022/04/25 04:36:39;;;;;;;16.92;8.35;;;7.90;99.90;;;;;;4945682;28;20043;-87
2022/04/25 04:39:05;;;;;;;15.63;8.18;;;8.00;99.90;;;;;;4944000;28;20035;-86
2022/04/25 04:41:30;;;;;;;16.48;8.13;;;8.10;99.90;;;;;;4948718;28;20053;-86
2022/04/25 04:43:59;;;;;;;19.40;9.00;;;8.10;99.90;;;;;;4952963;28;20041;-86
2022/04/25 04:46:25;;;;;;;15.25;8.52;;;8.20;99.90;;;;;;4938915;29;20040;-86
2022/04/25 04:48:50;;;;;;;14.43;7.95;;;8.20;99.90;;;;;;4953287;28;20101;-86
2022/04/25 04:51:16;;;;;;;16.95;8.65;;;8.30;99.90;;;;;;4956489;28;20505;-86
2022/04/25 04:53:42;;;;;;;16.27;8.38;;;8.30;99.90;;;;;;4942171;28;20503;-85
2022/04/25 04:56:08;;;;;;;14.70;7.95;;;8.30;99.90;;;;;;4955614;28;20027;-86
2022/04/25 04:58:33;;;;;;;15.35;8.57;;;8.40;99.90;;;;;;4937017;28;20062;-86
2022/04/25 05:00:59;;;;;;;14.02;8.45;;;8.40;99.90;;;;;;4954253;28;20031;-86
2022/04/25 05:03:25;;;;;;;16.58;8.30;;;8.50;99.90;;;;;;4956056;28;20062;-86
2022/04/25 05:05:55;;;;;;;14.35;7.63;;;8.40;99.90;;;;;;4937380;28;20051;-86
2022/04/25 05:08:21;;;;;;;13.13;7.63;;;8.40;99.90;;;;;;4959067;28;20861;-85
2022/04/25 05:10:49;;;;;;;14.40;7.72;;;8.40;99.90;;;;;;4961396;28;20034;-89
2022/04/25 05:13:23;;;;;;;15.95;7.65;;;8.50;99.90;;;;;;4938600;29;20039;-89
2022/04/25 05:16:22;;;;;;;14.48;8.05;;;8.40;99.90;;;;;;4922738;29;20539;-89
2022/04/25 05:18:48;;;;;;;14.93;7.70;;;8.50;99.90;;;;;;4951205;28;20114;-88
2022/04/25 05:21:14;;;;;;;14.30;7.78;;;8.50;99.90;;;;;;4929782;29;20562;-88
2022/04/25 05:23:41;;;;;;;14.55;7.57;;;8.50;99.90;;;;;;4932847;29;20023;-88
2022/04/25 05:26:08;;;;;;;13.48;7.30;;;8.70;99.90;;;;;;4952103;29;20034;-88
2022/04/25 05:28:33;;;;;;;16.98;7.68;;;8.80;99.90;;;;;;4944126;28;20591;-89
2022/04/25 05:30:59;;;;;;;14.95;8.40;;;8.90;99.90;;;;;;4932889;28;20047;-89
2022/04/25 05:33:25;;;;;;;16.42;8.63;;;8.70;99.90;;;;;;4957705;28;20031;-89
2022/04/25 05:35:52;;;;;;;16.55;8.20;;;8.80;99.90;;;;;;4955026;28;20031;-88
2022/04/25 05:38:18;;;;;;;13.30;7.50;;;8.80;99.90;;;;;;4932229;28;20126;-87
2022/04/25 05:40:44;;;;;;;14.05;7.72;;;8.80;99.90;;;;;;4931357;29;20390;-87
2022/04/25 05:43:11;;;;;;;15.45;8.02;;;8.90;99.90;;;;;;4938599;28;20031;-88
2022/04/25 05:45:37;;;;;;;16.10;7.70;;;8.90;99.90;;;;;;4948968;28;20091;-87
2022/04/25 05:51:58;;;;;;;13.93;7.30;;;9.00;99.90;;;;;;4939924;28;20485;-88
2022/04/25 05:53:36;;;;;;;14.95;7.50;;;9.10;99.90;;;;;;4952230;28;20149;-88
2022/04/25 05:56:02;;;;;;;13.48;7.88;;;9.10;99.90;;;;;;4958273;28;20023;-88
2022/04/25 05:58:27;;;;;;;12.93;7.25;;;9.20;99.90;;;;;;4925608;29;20131;-87
2022/04/25 06:00:53;;;;;;;20.52;7.97;;;9.30;99.90;;;;;;4918022;29;20040;-87
2022/04/25 06:03:19;;;;;;;15.65;8.00;;;9.40;99.90;;;;;;4924102;29;20111;-87
2022/04/25 06:05:45;;;;;;;13.93;7.15;;;9.40;99.90;;;;;;4947281;29;20482;-88
2022/04/25 06:08:11;;;;;;;14.18;7.97;;;9.30;99.90;;;;;;4949221;28;20027;-88
2022/04/25 06:10:36;;;;;;;14.30;7.70;;;9.40;99.90;;;;;;4950606;28;20031;-88
2022/04/25 06:13:04;;;;;;;14.93;7.25;;;9.30;99.90;;;;;;4948748;28;20505;-87
2022/04/25 06:15:32;;;;;;;16.98;7.15;;;9.60;99.90;;;;;;4944133;29;20027;-88
2022/04/25 06:17:58;;;;;;;14.68;6.82;;;9.40;99.90;;;;;;4944076;29;20039;-88
2022/04/25 06:20:27;;;;;;;13.70;7.03;;;9.60;99.90;;;;;;4916429;29;20019;-86
2022/04/25 06:23:02;;;;;;;13.88;7.18;;;9.60;99.90;;;;;;4947258;28;20031;-86
2022/04/25 06:25:29;;;;;;;11.52;6.85;;;9.70;99.90;;;;;;4949148;29;20086;-86
2022/04/25 06:27:57;;;;;;;12.05;6.07;;;9.80;99.90;;;;;;4935972;28;20026;-87
2022/04/25 06:30:28;;;;;;;12.60;7.03;;;9.80;99.90;;;;;;4933351;29;20055;-87
2022/04/25 06:32:54;;;;;;;14.05;6.70;;;9.90;99.90;;;;;;4936060;29;20034;-88
2022/04/25 06:35:21;;;;;;;12.88;7.38;;;10.10;99.90;;;;;;4933194;28;20032;-87
2022/04/25 06:37:47;;;;;;;13.15;6.65;;;10.30;99.90;;;;;;4951418;29;20039;-86
2022/04/25 06:40:13;;;;;;;14.85;7.68;;;10.50;99.90;;;;;;4951978;29;20023;-86
2022/04/25 06:42:38;;;;;;;12.25;6.97;;;10.70;99.90;;;;;;4950608;29;20038;-84
2022/04/25 06:45:06;;;;;;;12.23;6.32;;;10.80;99.90;;;;;;4951972;28;20034;-86
2022/04/25 06:47:32;;;;;;;12.75;6.85;;;10.90;99.90;;;;;;4934314;29;20024;-87
2022/04/25 06:49:58;;;;;;;11.60;5.88;;;11.00;99.90;;;;;;4951600;29;20031;-87
2022/04/25 06:52:23;;;;;;;10.32;6.10;;;11.10;99.90;;;;;;4950831;29;20019;-88
2022/04/25 06:54:59;;;;;;;10.05;5.38;;;11.10;99.90;;;;;;4967208;23;20054;-88
2022/04/25 06:57:30;;;;;;;16.02;6.20;;;11.20;99.90;;;;;;4925184;29;20028;-88
2022/04/25 07:00:52;;;;;;;10.93;5.50;;;11.30;99.90;;;;;;4942746;29;20041;-88
2022/04/25 07:03:21;;;;;;;8.93;5.35;;;11.40;99.90;;;;;;4934136;29;20059;-88
2022/04/25 07:05:52;;;;;;;9.80;5.03;;;11.50;99.90;;;;;;4920690;29;20032;-88
2022/04/25 07:08:18;;;;;;;9.57;5.28;;;11.50;99.90;;;;;;4939852;29;20051;-88
2022/04/25 07:11:05;;;;;;;9.15;5.30;;;11.50;99.90;;;;;;4945903;29;20486;-87
2022/04/25 07:13:30;;;;;;;9.52;5.28;;;11.50;99.90;;;;;;4918950;29;20122;-88
2022/04/25 07:15:56;;;;;;;9.63;4.75;;;11.30;99.90;;;;;;4920507;28;20129;-89
2022/04/25 07:18:22;;;;;;;10.23;5.20;;;11.10;99.90;;;;;;4934705;29;20344;-87
2022/04/25 07:20:47;;;;;;;7.40;4.80;;;10.90;99.90;;;;;;4940889;29;20023;-88
2022/04/25 07:28:48;;;;;;;9.68;5.32;;;10.90;99.90;;;;;;4948449;29;20050;-89
2022/04/25 07:28:58;;;;;;;9.75;5.57;;;10.90;99.90;;;;;;4961591;29;20031;-89
2022/04/25 07:31:27;;;;;;;7.97;4.22;;;10.90;99.90;;;;;;4961084;29;20089;-88
2022/04/25 07:33:57;;;;;;;8.27;4.68;;;11.00;99.90;;;;;;4968667;28;20023;-88
2022/04/25 07:36:24;;;;;;;10.18;5.47;;;11.20;99.90;;;;;;4967066;29;20036;-88
2022/04/25 07:38:50;;;;;;;10.35;5.63;;;11.40;99.90;;;;;;4937140;29;20051;-88
2022/04/25 07:41:23;;;;;;;12.73;5.72;;;11.50;99.90;;;;;;4945885;28;20102;-89
2022/04/25 07:44:05;;;;;;;9.55;5.45;;;11.50;99.90;;;;;;4972233;28;20082;-89
2022/04/25 07:46:45;;;;;;;8.18;4.75;;;11.50;99.90;;;;;;4949488;29;20103;-89
2022/04/25 07:49:13;;;;;;;9.75;5.20;;;11.60;99.90;;;;;;4935972;29;20055;-90
2022/04/25 07:51:43;;;;;;;8.90;4.30;;;11.60;99.90;;;;;;4924641;29;20047;-88
2022/04/25 07:54:09;;;;;;;7.35;3.83;;;11.70;99.90;;;;;;4942836;29;20042;-88
2022/04/25 07:56:43;;;;;;;7.75;4.35;;;11.70;99.90;;;;;;4943994;29;20171;-89
2022/04/25 07:59:09;;;;;;;7.03;4.38;;;11.70;99.90;;;;;;4943787;29;20059;-89
2022/04/25 08:01:36;;;;;;;9.18;4.60;;;11.90;99.90;;;;;;4959930;28;20046;-89
2022/04/25 08:04:07;;;;;;;7.57;4.45;;;11.90;99.90;;;;;;4926886;29;20028;-88
2022/04/25 08:06:59;;;;;;;7.18;4.25;;;11.90;99.90;;;;;;4938401;29;20094;-88
2022/04/25 08:09:27;;;;;;;8.35;5.10;;;11.90;99.90;;;;;;4962364;28;20050;-88
2022/04/25 08:17:56;;;;;;;8.57;4.53;;;11.90;99.90;;;;;;4934676;28;20031;-87
2022/04/25 08:20:13;;;;;;;9.32;4.82;;;12.40;99.90;;;;;;4958496;28;20267;-88
2022/04/25 08:22:48;;;;;;;9.52;5.47;;;12.70;99.90;;;;;;4934281;29;20070;-88
2022/04/25 08:25:17;;;;;;;7.65;4.88;;;12.70;99.90;;;;;;4956978;29;20031;-88
2022/04/25 08:27:45;;;;;;;9.45;5.05;;;12.70;99.90;;;;;;4939817;29;20031;-87
2022/04/25 08:30:20;;;;;;;8.50;5.25;;;12.40;99.90;;;;;;4955044;28;20039;-87
2022/04/25 08:36:49;;;;;;;9.43;5.38;;;12.30;99.90;;;;;;4953460;28;20042;-89
2022/04/25 08:42:37;;;;;;;;;;;;;;;;;;;;;
2022/04/25 08:48:41;;;;;;;9.05;5.10;;;12.10;99.90;;;;;;4924590;28;20046;-88
2022/04/25 08:51:30;;;;;;;;;;;12.00;99.90;;;;;;4953756;28;20057;-88
2022/04/25 09:00:50;;;;;;;;;;;;;;;;;;;;;
2022/04/25 09:03:49;;;;;;;8.98;5.13;;;12.20;99.90;;;;;;4937793;28;20601;-89
2022/04/25 09:07:04;;;;;;;8.88;4.85;;;12.30;99.90;;;;;;4965659;28;20047;-89
2022/04/25 09:10:13;;;;;;;10.23;5.20;;;12.40;99.90;;;;;;4866862;29;20038;-89
2022/04/25 09:13:43;;;;;;;;;;;;;;;;;;;;;
2022/04/25 10:20:46;;;;;;;8.45;5.07;;;15.10;99.90;;;;;;4882143;29;20071;-90
2022/04/25 10:23:24;;;;;;;8.95;5.22;;;15.00;99.90;;;;;;4899254;29;20076;-90
2022/04/25 10:26:35;;;;;;;7.95;4.63;;;14.80;99.90;;;;;;4930115;29;20035;-89
2022/04/25 10:33:13;;;;;;;8.88;5.15;;;14.70;99.90;;;;;;4953188;28;20031;-89
2022/04/25 10:39:24;;;;;;;9.23;5.10;;;15.10;99.90;;;;;;4907383;29;20050;-89
2022/04/25 10:59:53;;;;;;;8.15;4.68;;;15.20;99.90;;;;;;4925543;29;19921;-89
2022/04/25 11:49:56;;;;;;;;;;;;;;;;;;;;;
2022/04/25 11:52:26;;;;;;;7.38;4.57;;;14.40;99.90;;;;;;4989185;28;20448;-89
2022/04/25 11:55:08;;;;;;;7.25;4.10;;;14.20;99.90;;;;;;4997684;28;20022;-89
2022/04/25 11:57:52;;;;;;;9.43;4.00;;;13.90;99.90;;;;;;4987054;28;20042;-89
2022/04/25 12:00:24;;;;;;;10.57;4.93;;;13.90;99.90;;;;;;4973479;28;20118;-90
2022/04/25 12:03:51;;;;;;;9.63;4.53;;;13.80;99.90;;;;;;4997225;28;20022;-88
2022/04/25 12:06:24;;;;;;;7.45;4.35;;;13.70;99.90;;;;;;4958896;28;20270;-87
2022/04/25 12:17:22;;;;;;;9.10;5.22;;;13.20;99.90;;;;;;4987128;28;20077;-87
2022/04/25 12:20:09;;;;;;;7.93;4.82;;;13.10;99.90;;;;;;4973932;28;20026;-87
2022/04/25 12:23:01;;;;;;;9.10;4.85;;;13.00;99.90;;;;;;4962971;28;20500;-86
2022/04/25 12:25:42;;;;;;;8.73;5.03;;;12.90;99.90;;;;;;4910895;29;20040;-87
2022/04/25 12:28:23;;;;;;;7.70;4.90;;;12.90;99.90;;;;;;4956167;28;20033;-87
2022/04/25 12:31:15;;;;;;;10.82;5.07;;;12.90;99.90;;;;;;4970889;28;20480;-87
2022/04/25 12:33:43;;;;;;;9.10;5.38;;;12.70;99.90;;;;;;4937498;28;20098;-87
2022/04/25 12:36:39;;;;;;;7.60;4.93;;;12.70;99.90;;;;;;4945776;29;20020;-88
2022/04/25 12:39:15;;;;;;;11.40;5.45;;;12.60;99.90;;;;;;4960094;29;20110;-87
2022/04/25 12:44:59;;;;;;;9.93;5.47;;;12.40;99.90;;;;;;4987255;28;20046;-87
2022/04/25 12:47:27;;;;;;;11.32;5.78;;;12.60;99.90;;;;;;4960760;28;20031;-86
2022/04/25 12:49:54;;;;;;;10.45;5.55;;;12.70;99.90;;;;;;4952099;28;20046;-86
2022/04/25 12:52:40;;;;;;;9.27;5.30;;;12.70;99.90;;;;;;4966319;28;20031;-87
2022/04/25 12:55:05;;;;;;;10.40;5.80;;;12.70;99.90;;;;;;4973697;28;20026;-87
2022/04/25 12:57:33;;;;;;;9.20;5.25;;;12.80;99.90;;;;;;4970616;28;20099;-87
2022/04/25 13:00:00;;;;;;;10.68;6.00;;;12.60;99.90;;;;;;4970105;28;20026;-87
2022/04/25 13:02:36;;;;;;;9.77;5.88;;;12.70;99.90;;;;;;4963974;28;20023;-86
2022/04/25 13:08:51;;;;;;;9.60;5.32;;;12.60;99.90;;;;;;4965450;28;20030;-87
2022/04/25 13:11:18;;;;;;;8.75;5.18;;;12.60;99.90;;;;;;4994441;28;20477;-88
2022/04/25 13:13:43;;;;;;;10.80;5.70;;;12.80;99.90;;;;;;4988834;28;20412;-87
2022/04/25 13:16:09;;;;;;;8.50;5.05;;;13.00;99.90;;;;;;4991300;28;20034;-87
2022/04/25 13:18:35;;;;;;;10.32;6.22;;;13.30;99.90;;;;;;4974451;28;20488;-88
2022/04/25 13:21:03;;;;;;;8.70;5.28;;;13.70;99.90;;;;;;4968558;28;20428;-87
2022/04/25 13:23:30;;;;;;;9.18;5.75;;;13.80;99.90;;;;;;4970568;28;20019;-87
2022/04/25 13:25:56;;;;;;;9.93;5.88;;;14.20;99.90;;;;;;4962209;28;20752;-89
2022/04/25 13:28:21;;;;;;;8.65;5.07;;;14.10;99.90;;;;;;4965957;28;20043;-88
2022/04/25 13:30:51;;;;;;;9.02;4.82;;;14.20;99.90;;;;;;4990106;28;20098;-88
2022/04/25 13:45:30;;;;;;;5.40;3.35;;;17.00;99.90;;;;;;4922153;29;20028;-90
2022/04/25 13:48:19;;;;;;;;;;;17.10;99.90;;;;;;4944522;29;20040;-89
2022/04/25 13:51:18;;;;;;;6.97;3.83;;;16.80;99.90;;;;;;4937768;29;19907;-90
2022/04/25 13:54:10;;;;;;;6.63;3.42;;;17.10;99.90;;;;;;4931519;29;20478;-90
2022/04/25 13:56:49;;;;;;;5.70;3.40;;;17.80;99.90;;;;;;4919165;29;20067;-91
2022/04/25 13:59:25;;;;;;;5.35;2.67;;;18.10;99.90;;;;;;4933759;29;20067;-91
2022/04/25 14:05:08;;;;;;;4.80;2.67;;;17.70;99.90;;;;;;4943609;29;20099;-90
2022/04/25 14:07:53;;;;;;;5.13;2.78;;;17.00;99.90;;;;;;4939569;29;20051;-91
2022/04/25 14:56:09;;;;;;;4.20;1.65;;;18.00;99.90;;;;;;4946865;29;20038;-89
2022/04/25 14:59:26;;;;;;;2.47;1.33;;;18.20;99.90;;;;;;4925259;29;20577;-89
2022/04/25 15:02:07;;;;;;;3.08;1.30;;;17.50;99.90;;;;;;4920366;29;20856;-88
2022/04/25 15:04:47;;;;;;;3.10;1.50;;;16.80;99.90;;;;;;4923090;29;20028;-89
2022/04/25 15:10:32;;;;;;;3.05;1.40;;;15.50;99.90;;;;;;4868930;29;20073;-91
2022/04/25 15:13:07;;;;;;;3.63;1.77;;;15.30;99.90;;;;;;4920759;29;20059;-92
2022/04/25 15:15:39;;;;;;;2.78;1.33;;;15.50;99.90;;;;;;4922922;29;20032;-92
2022/04/25 15:18:16;;;;;;;2.67;1.17;;;16.50;99.90;;;;;;4928481;29;20122;-91
2022/04/25 15:20:44;;;;;;;3.05;1.27;;;17.00;99.90;;;;;;4945681;29;20473;-90
2022/04/25 15:23:12;;;;;;;4.43;1.60;;;17.80;99.90;;;;;;4928822;29;20024;-91
2022/04/25 15:25:40;;;;;;;3.17;1.40;;;18.00;99.90;;;;;;4939806;29;20027;-91
2022/04/25 15:28:12;;;;;;;2.92;1.40;;;18.00;99.90;;;;;;4945207;29;20020;-91
2022/04/25 15:30:47;;;;;;;3.25;1.27;;;18.40;99.90;;;;;;4948664;29;20029;-91
2022/04/25 15:33:13;;;;;;;2.70;1.48;;;18.60;99.90;;;;;;4925625;29;20095;-91
2022/04/25 15:35:52;;;;;;;3.55;1.60;;;18.80;99.90;;;;;;4943164;29;20083;-92
2022/04/25 15:38:21;;;;;;;3.83;1.55;;;19.00;99.90;;;;;;4929176;29;20620;-91
2022/04/25 15:40:55;;;;;;;2.80;1.23;;;19.00;99.90;;;;;;4919948;29;20117;-91
2022/04/25 15:43:21;;;;;;;2.45;1.10;;;18.90;99.90;;;;;;4930528;29;20019;-91
2022/04/25 15:45:48;;;;;;;2.78;1.20;;;18.70;99.90;;;;;;4930330;29;20034;-91
2022/04/25 15:48:18;;;;;;;2.40;1.17;;;18.10;99.90;;;;;;4917851;29;20024;-90
2022/04/25 15:50:50;;;;;;;3.03;1.30;;;17.60;99.90;;;;;;4928879;29;20417;-91
2022/04/25 15:53:18;;;;;;;;;;;16.90;99.90;;;;;;4931214;29;20126;-91
2022/04/25 15:58:38;;;;;;;2.80;1.38;;;15.70;99.90;;;;;;4942054;29;20051;-91
2022/04/25 16:01:11;;;;;;;3.65;1.23;;;15.40;99.90;;;;;;4952728;29;20493;-91
2022/04/25 16:03:37;;;;;;;2.13;1.08;;;15.10;99.90;;;;;;4945448;29;20055;-89
2022/04/25 16:10:15;;;;;;;2.45;1.23;;;14.60;99.90;;;;;;4941068;29;20074;-91
2022/04/25 16:41:09;;;;;;;4.15;1.73;;;13.50;99.90;;;;;;4950943;28;20058;-87
2022/04/25 16:43:37;;;;;;;3.10;1.52;;;13.40;99.90;;;;;;4953938;28;20057;-87
2022/04/25 16:50:56;;;;;;;4.15;1.65;;;13.10;99.90;;;;;;4895176;29;20056;-90
2022/04/25 16:54:09;;;;;;;3.65;1.55;;;13.10;99.90;;;;;;4898867;29;20044;-89
2022/04/25 16:59:16;;;;;;;3.85;1.75;;;12.80;99.90;;;;;;5694502;23;20095;-91
2022/04/25 17:02:29;;;;;;;;;;;;;;;;;;;;;
2022/04/25 17:05:40;;;;;;;3.85;1.90;;;12.70;99.90;;;;;;4949657;28;20042;-91
2022/04/25 17:08:17;;;;;;;4.35;1.75;;;12.60;99.90;;;;;;4949238;29;20044;-91
2022/04/25 17:10:57;;;;;;;4.43;2.08;;;12.60;99.90;;;;;;4911692;29;20048;-91
2022/04/25 17:16:33;;;;;;;3.83;1.55;;;12.50;99.90;;;;;;4957087;29;19913;-91
2022/04/25 17:20:14;;;;;;;4.45;1.60;;;12.50;99.90;;;;;;4958995;28;20058;-90
2022/04/25 17:23:00;;;;;;;2.78;1.33;;;12.10;99.90;;;;;;4957359;29;20069;-91
2022/04/25 17:25:47;;;;;;;1.40;0.88;;;12.00;99.90;;;;;;4956555;29;20027;-91
2022/04/25 17:28:17;;;;;;;1.92;0.98;;;11.50;99.90;;;;;;4956504;28;20027;-90
2022/04/25 17:35:20;;;;;;;2.22;1.10;;;11.40;99.90;;;;;;4939560;29;20118;-91
2022/04/25 17:37:07;;;;;;;2.42;0.90;;;11.20;99.90;;;;;;4953313;28;20126;-87
